Time;durP1;ratioP1;P1;durP2;ratioP2;P2;SDS_P1;SDS_P2;PMS_P1;PMS_P2;Temp;Humidity;BMP_temperature;BMP_pressure;BME280_temperature;BME280_humidity;BME280_pressure;Samples;Min_cycle;Max_cycle;Signal;HPM_P1;HPM_P2
2023/03/12 00:01:17;;;;;;;17.95;5.75;;;;;;;1.48;81.91;101053.56;4949049;28;20142;-80
2023/03/12 00:03:43;;;;;;;7.47;5.32;;;;;;;1.48;81.89;101056.25;4948278;28;20117;-80
2023/03/12 00:06:09;;;;;;;11.18;5.57;;;;;;;1.48;81.11;101050.88;4949496;29;20121;-80
2023/03/12 00:08:34;;;;;;;10.05;5.38;;;;;;;1.50;81.81;101048.19;4948375;29;20098;-80
2023/03/12 00:11:05;;;;;;;13.75;4.97;;;;;;;1.51;82.11;101050.78;4948201;29;20481;-80
2023/03/12 00:13:30;;;;;;;9.15;5.03;;;;;;;1.51;82.58;101047.25;4967750;28;20121;-80
2023/03/12 00:15:55;;;;;;;9.82;4.78;;;;;;;1.50;81.28;101043.69;4968815;28;20117;-80
2023/03/12 00:18:21;;;;;;;9.95;5.10;;;;;;;1.52;81.25;101043.63;4951258;28;20301;-80
2023/03/12 00:20:53;;;;;;;12.07;4.53;;;;;;;1.53;81.78;101042.69;4947647;28;20521;-80
2023/03/12 00:23:18;;;;;;;9.65;4.80;;;;;;;1.53;81.51;101035.53;4948170;29;20043;-80
2023/03/12 00:25:43;;;;;;;8.25;4.50;;;;;;;1.53;80.92;101031.97;4931322;29;20046;-80
2023/03/12 00:28:09;;;;;;;9.05;3.90;;;;;;;1.53;82.54;101014.06;4948539;29;20455;-80
2023/03/12 00:30:34;;;;;;;8.93;4.60;;;;;;;1.50;82.19;101007.97;4949047;28;20035;-81
2023/03/12 00:32:59;;;;;;;10.95;4.32;;;;;;;1.52;81.50;101016.81;4949337;28;20031;-80
2023/03/12 00:35:25;;;;;;;8.63;5.20;;;;;;;1.52;81.35;101022.19;4947246;28;20153;-80
2023/03/12 00:37:50;;;;;;;9.23;4.45;;;;;;;1.49;80.63;101006.19;4947761;29;20086;-81
2023/03/12 00:40:16;;;;;;;13.15;4.63;;;;;;;1.53;79.07;101010.53;4947934;28;20044;-81
2023/03/12 00:42:41;;;;;;;8.57;4.10;;;;;;;1.59;80.37;101018.38;4948432;29;20395;-81
2023/03/12 00:45:07;;;;;;;8.77;3.90;;;;;;;1.59;80.37;101004.09;4949175;29;20043;-82
2023/03/12 00:47:32;;;;;;;8.77;4.82;;;;;;;1.59;79.98;101004.97;4943426;29;20027;-81
2023/03/12 00:49:58;;;;;;;7.75;4.40;;;;;;;1.58;80.68;100997.84;4949320;28;20043;-81
2023/03/12 00:52:23;;;;;;;7.63;4.20;;;;;;;1.60;80.24;101009.41;4948828;29;20105;-81
2023/03/12 00:54:48;;;;;;;13.75;4.85;;;;;;;1.60;80.36;100998.69;4948592;29;20185;-81
2023/03/12 00:57:14;;;;;;;8.05;4.35;;;;;;;1.61;80.56;100991.50;4947958;28;20039;-82
2023/03/12 00:59:41;;;;;;;9.00;5.57;;;;;;;1.61;80.34;100984.34;4943983;28;20047;-81
2023/03/12 01:02:07;;;;;;;9.30;4.75;;;;;;;1.61;80.81;100992.38;4941651;29;20036;-80
2023/03/12 01:04:33;;;;;;;10.18;5.05;;;;;;;1.62;80.16;100986.09;4938152;29;20448;-79
2023/03/12 01:06:59;;;;;;;11.65;5.10;;;;;;;1.64;80.15;100986.06;4949261;29;20061;-81
2023/03/12 01:09:24;;;;;;;8.45;4.95;;;;;;;1.63;79.71;100979.81;4934283;29;20043;-81
2023/03/12 01:11:50;;;;;;;11.00;4.82;;;;;;;1.63;79.82;100973.56;4926485;29;20454;-80
2023/03/12 01:14:15;;;;;;;9.50;5.22;;;;;;;1.63;80.47;100970.88;4927998;29;20404;-81
2023/03/12 01:16:41;;;;;;;12.60;5.05;;;;;;;1.64;80.03;100967.28;4928078;29;20031;-82
2023/03/12 01:19:06;;;;;;;10.25;5.00;;;;;;;1.67;79.67;100964.47;4940314;29;20035;-81
2023/03/12 01:21:35;;;;;;;9.02;5.03;;;;;;;1.68;79.62;100969.81;4944339;29;20090;-81
2023/03/12 01:24:00;;;;;;;16.55;5.85;;;;;;;1.68;79.51;100971.59;4944950;29;20146;-81
2023/03/12 01:26:25;;;;;;;9.43;4.55;;;;;;;1.69;79.44;100976.94;4942034;28;20183;-81
2023/03/12 01:28:51;;;;;;;13.13;4.57;;;;;;;1.71;79.83;100984.91;4947818;28;20537;-80
2023/03/12 01:31:18;;;;;;;11.23;6.03;;;;;;;1.71;79.87;100979.53;4945818;28;20035;-81
2023/03/12 01:33:47;;;;;;;8.23;4.75;;;;;;;1.71;80.28;100980.41;4943666;28;20555;-81
2023/03/12 01:36:25;;;;;;;9.73;5.88;;;;;;;1.70;80.71;100967.06;4929086;29;20035;-81
2023/03/12 01:38:52;;;;;;;13.05;5.60;;;;;;;1.71;79.86;100964.34;4944119;29;20440;-81
2023/03/12 01:41:18;;;;;;;10.35;6.20;;;;;;;1.71;79.96;100960.78;4942488;29;20240;-81
2023/03/12 01:43:44;;;;;;;6.93;5.05;;;;;;;1.71;79.94;100967.00;4929218;29;20523;-81
2023/03/12 01:46:29;;;;;;;12.27;5.47;;;;;;;1.75;80.32;100967.78;4927578;29;20059;-81
2023/03/12 01:49:02;;;;;;;8.65;5.60;;;;;;;1.75;80.18;100955.25;4922825;29;20056;-81
2023/03/12 01:51:35;;;;;;;11.70;6.28;;;;;;;1.72;81.02;100936.56;4943247;28;20024;-81
2023/03/12 01:54:06;;;;;;;9.82;5.95;;;;;;;1.74;80.76;100936.53;4928446;29;20036;-81
2023/03/12 01:56:35;;;;;;;11.48;6.00;;;;;;;1.71;81.33;100933.97;4926737;29;20032;-81
2023/03/12 01:59:09;;;;;;;9.43;5.38;;;;;;;1.68;81.26;100929.59;4928299;29;20053;-81
2023/03/12 02:01:34;;;;;;;13.65;5.85;;;;;;;1.67;80.42;100938.53;4932741;28;20123;-81
2023/03/12 02:04:00;;;;;;;9.88;5.75;;;;;;;1.70;80.63;100943.81;4946927;28;20043;-81
2023/03/12 02:06:53;;;;;;;14.82;6.28;;;;;;;1.70;80.71;100935.78;4946873;29;20028;-79
2023/03/12 02:09:20;;;;;;;9.25;5.65;;;;;;;1.69;80.41;100934.03;4923569;29;20489;-79
2023/03/12 02:11:46;;;;;;;13.52;6.15;;;;;;;1.62;81.06;100911.00;4929241;29;20035;-80
2023/03/12 02:14:12;;;;;;;9.77;6.07;;;;;;;1.69;80.81;100919.75;4946111;29;20035;-79
2023/03/12 02:16:37;;;;;;;8.52;5.03;;;;;;;1.69;80.70;100925.97;4930394;28;20495;-80
2023/03/12 02:19:16;;;;;;;14.85;5.50;;;;;;;1.71;81.37;100921.41;4930653;29;20471;-79
2023/03/12 02:21:41;;;;;;;9.82;4.90;;;;;;;1.71;80.53;100912.50;4930630;29;20187;-80
2023/03/12 02:24:48;;;;;;;10.60;4.95;;;;;;;1.72;81.16;100906.19;4930795;29;20138;-80
2023/03/12 02:27:15;;;;;;;10.45;5.07;;;;;;;1.69;81.55;100901.84;4895443;29;20055;-79
2023/03/12 02:29:43;;;;;;;13.50;5.72;;;;;;;1.69;81.82;100900.97;4950117;29;20027;-79
2023/03/12 02:32:18;;;;;;;8.38;4.93;;;;;;;1.68;82.13;100893.81;4949479;28;20503;-79
2023/03/12 02:34:44;;;;;;;12.38;5.25;;;;;;;1.68;82.08;100896.50;4948867;28;20103;-79
2023/03/12 02:37:09;;;;;;;10.88;5.60;;;;;;;1.67;81.53;100892.09;4949879;29;20496;-80
2023/03/12 02:39:35;;;;;;;7.32;4.82;;;;;;;1.68;80.83;100905.47;4933679;29;20450;-79
2023/03/12 02:42:01;;;;;;;10.55;5.00;;;;;;;1.71;80.88;100905.34;4949237;29;20039;-79
2023/03/12 02:44:30;;;;;;;15.95;5.68;;;;;;;1.72;81.28;100903.53;4933730;29;20042;-79
2023/03/12 02:46:59;;;;;;;7.80;5.47;;;;;;;1.73;81.14;100902.63;4950183;28;20055;-79
2023/03/12 02:49:28;;;;;;;8.30;5.18;;;;;;;1.73;81.08;100910.66;4950866;28;20043;-78
2023/03/12 02:51:54;;;;;;;10.40;5.72;;;;;;;1.73;81.43;100903.50;4949681;29;20032;-79
2023/03/12 02:54:21;;;;;;;8.63;5.15;;;;;;;1.74;81.08;100899.00;4951061;29;20055;-78
2023/03/12 02:56:48;;;;;;;9.90;5.28;;;;;;;1.74;81.18;100902.56;4946635;28;20086;-79
2023/03/12 02:59:14;;;;;;;12.77;5.78;;;;;;;1.74;80.57;100890.97;4949461;28;20039;-79
2023/03/12 03:01:42;;;;;;;10.52;5.68;;;;;;;1.75;80.67;100888.22;4949934;28;20031;-78
2023/03/12 03:04:10;;;;;;;9.00;6.10;;;;;;;1.76;81.61;100879.22;4951838;28;20041;-78
2023/03/12 03:06:38;;;;;;;11.73;5.55;;;;;;;1.75;81.15;100881.97;4949030;29;20027;-78
2023/03/12 03:09:04;;;;;;;10.02;5.45;;;;;;;1.79;81.17;100891.66;4948345;29;20055;-79
2023/03/12 03:11:30;;;;;;;16.75;5.25;;;;;;;1.81;81.55;100883.56;4932377;28;20842;-79
2023/03/12 03:13:55;;;;;;;14.07;5.03;;;;;;;1.82;82.05;100882.63;4933243;29;20384;-80
2023/03/12 03:16:22;;;;;;;7.78;5.32;;;;;;;1.77;81.19;100875.63;4933083;28;20132;-79
2023/03/12 03:18:48;;;;;;;11.38;5.82;;;;;;;1.82;82.45;100879.94;4942401;28;20089;-79
2023/03/12 03:21:16;;;;;;;10.02;5.70;;;;;;;1.82;82.23;100879.94;4932893;29;20067;-79
2023/03/12 03:23:44;;;;;;;9.60;6.03;;;;;;;1.82;82.98;100880.84;4933131;29;20027;-79
2023/03/12 03:26:10;;;;;;;14.23;5.97;;;;;;;1.80;83.60;100877.31;4935104;29;20114;-79
2023/03/12 03:28:35;;;;;;;11.15;5.25;;;;;;;1.82;83.79;100888.88;4950221;29;20135;-79
2023/03/12 03:31:04;;;;;;;8.20;4.95;;;;;;;1.81;84.05;100881.75;4919918;29;20023;-78
2023/03/12 03:33:35;;;;;;;11.20;4.97;;;;;;;1.83;84.32;100882.59;4948383;28;20058;-79
2023/03/12 03:36:03;;;;;;;5.10;4.15;;;;;;;1.87;84.06;100889.59;4931372;28;20082;-78
2023/03/12 03:38:33;;;;;;;7.65;4.55;;;;;;;1.89;84.73;100876.13;4933232;29;20039;-79
2023/03/12 03:41:00;;;;;;;7.22;5.05;;;;;;;1.87;84.78;100864.56;4944835;28;20035;-79
2023/03/12 03:43:26;;;;;;;7.20;4.22;;;;;;;1.91;85.27;100867.09;4935280;28;20019;-79
2023/03/12 03:46:03;;;;;;;10.70;4.15;;;;;;;1.92;85.10;100857.25;4935950;28;20376;-79
2023/03/12 03:48:32;;;;;;;10.35;4.93;;;;;;;1.92;85.57;100859.91;4949281;28;20035;-79
2023/03/12 03:51:03;;;;;;;7.78;4.47;;;;;;;1.92;86.26;100849.19;4948640;29;20037;-80
2023/03/12 03:53:33;;;;;;;12.93;5.03;;;;;;;1.90;86.87;100834.94;4947643;29;20517;-80
2023/03/12 03:56:08;;;;;;;8.93;4.15;;;;;;;1.90;86.75;100833.13;4948502;29;20035;-79
2023/03/12 03:58:36;;;;;;;6.97;4.50;;;;;;;1.89;87.46;100828.69;4947824;28;20027;-79
2023/03/12 04:01:02;;;;;;;9.85;5.05;;;;;;;1.88;87.70;100826.09;4948291;29;20443;-79
2023/03/12 04:03:28;;;;;;;18.13;5.35;;;;;;;1.86;87.00;100825.25;4947449;28;20065;-79
2023/03/12 04:05:58;;;;;;;8.63;3.70;;;;;;;1.87;87.38;100833.25;4948094;28;20491;-79
2023/03/12 04:08:23;;;;;;;6.68;4.65;;;;;;;1.88;87.59;100824.28;4947924;28;20965;-79
2023/03/12 04:10:49;;;;;;;8.13;4.93;;;;;;;1.87;87.73;100818.97;4947526;29;20032;-79
2023/03/12 04:13:14;;;;;;;11.20;4.78;;;;;;;1.88;88.20;100816.22;4947487;29;20055;-79
2023/03/12 04:15:52;;;;;;;13.18;4.90;;;;;;;1.87;87.41;100803.75;4947794;28;20049;-79
2023/03/12 04:18:18;;;;;;;10.82;5.22;;;;;;;1.89;88.20;100803.69;4947930;28;20456;-79
2023/03/12 04:20:44;;;;;;;7.35;4.43;;;;;;;1.89;87.93;100798.31;4947644;28;20040;-79
2023/03/12 04:23:10;;;;;;;6.88;4.28;;;;;;;1.89;87.82;100798.31;4948191;29;20027;-79
2023/03/12 04:25:37;;;;;;;8.73;4.65;;;;;;;1.87;88.28;100787.66;4947129;28;20954;-78
2023/03/12 04:28:04;;;;;;;16.00;5.13;;;;;;;1.91;88.13;100775.88;4947035;28;20085;-78
2023/03/12 04:30:30;;;;;;;10.50;5.18;;;;;;;1.90;87.88;100774.13;4948572;29;20057;-79
2023/03/12 04:32:55;;;;;;;10.65;5.78;;;;;;;1.90;88.35;100766.06;4947507;28;20476;-79
2023/03/12 04:35:21;;;;;;;13.02;6.68;;;;;;;1.89;88.34;100772.38;4947267;28;20066;-79
2023/03/12 04:37:46;;;;;;;10.73;5.63;;;;;;;1.90;88.02;100771.44;4931826;29;20027;-78
2023/03/12 04:40:12;;;;;;;12.57;5.38;;;;;;;1.90;87.80;100765.19;4946737;29;20154;-78
2023/03/12 04:42:38;;;;;;;10.35;5.22;;;;;;;1.89;88.16;100758.09;4930718;29;20031;-78
2023/03/12 04:45:06;;;;;;;11.82;5.38;;;;;;;1.89;87.64;100761.66;4947800;29;20114;-79
2023/03/12 04:47:32;;;;;;;7.88;5.15;;;;;;;1.92;87.72;100777.63;4946242;28;20126;-77
2023/03/12 04:49:58;;;;;;;13.13;5.40;;;;;;;1.89;88.00;100768.81;4947431;29;20118;-78
2023/03/12 04:52:25;;;;;;;11.82;5.57;;;;;;;1.91;87.64;100761.56;4947546;29;20419;-78
2023/03/12 04:54:52;;;;;;;9.07;5.50;;;;;;;1.94;87.95;100765.03;4930796;29;20053;-78
2023/03/12 04:57:18;;;;;;;8.65;5.30;;;;;;;1.94;87.67;100759.66;4946000;28;20034;-78
2023/03/12 04:59:43;;;;;;;10.90;5.93;;;;;;;1.97;87.62;100754.19;4930965;29;20490;-78
2023/03/12 05:02:09;;;;;;;12.60;5.07;;;;;;;1.98;88.54;100758.59;4946809;28;20122;-78
2023/03/12 05:04:34;;;;;;;7.38;4.40;;;;;;;1.99;87.78;100749.63;4950011;28;20114;-78
2023/03/12 05:07:00;;;;;;;12.70;4.75;;;;;;;2.01;87.56;100745.09;4949130;29;20039;-78
2023/03/12 05:09:25;;;;;;;8.05;4.63;;;;;;;2.04;87.71;100731.53;4947418;29;20070;-78
2023/03/12 05:11:51;;;;;;;9.15;4.78;;;;;;;2.06;88.15;100734.19;4945310;28;20400;-78
2023/03/12 05:14:18;;;;;;;7.40;4.70;;;;;;;2.08;88.43;100715.31;4947324;29;20035;-76
2023/03/12 05:16:46;;;;;;;14.02;4.68;;;;;;;2.09;88.33;100719.75;4947005;28;20463;-78
2023/03/12 05:19:11;;;;;;;10.65;4.55;;;;;;;2.08;88.53;100718.88;4930857;29;20031;-78
2023/03/12 05:21:39;;;;;;;8.88;3.92;;;;;;;2.10;88.45;100713.44;4946708;29;20035;-77
2023/03/12 05:24:05;;;;;;;8.63;4.53;;;;;;;2.09;88.98;100715.25;4947128;29;20062;-78
2023/03/12 05:26:32;;;;;;;11.80;4.97;;;;;;;2.11;90.26;100718.78;4946417;29;20562;-78
2023/03/12 05:29:16;;;;;;;8.65;4.57;;;;;;;2.11;90.51;100717.91;4945975;29;20035;-78
2023/03/12 05:31:42;;;;;;;8.68;4.15;;;;;;;2.09;91.36;100712.56;4946775;28;20031;-79
2023/03/12 05:34:11;;;;;;;6.60;3.95;;;;;;;2.10;91.61;100706.28;4946830;28;20058;-79
2023/03/12 05:36:38;;;;;;;8.05;4.25;;;;;;;2.09;91.87;100709.03;4946637;29;20039;-79
2023/03/12 05:39:04;;;;;;;15.10;4.50;;;;;;;2.09;92.36;100709.88;4947150;29;20481;-79
2023/03/12 05:41:32;;;;;;;10.57;4.82;;;;;;;2.09;93.11;100715.25;4946023;29;20046;-78
2023/03/12 05:44:04;;;;;;;11.20;4.13;;;;;;;2.06;93.35;100710.03;4946879;28;20035;-79
2023/03/12 05:46:29;;;;;;;11.77;4.22;;;;;;;2.10;93.30;100708.97;4947371;28;20134;-79
2023/03/12 05:48:56;;;;;;;8.95;4.55;;;;;;;2.09;93.85;100709.03;4946579;28;20129;-79
2023/03/12 05:51:21;;;;;;;9.48;4.70;;;;;;;2.10;94.23;100708.97;4946142;28;20367;-79
2023/03/12 05:53:47;;;;;;;12.02;5.05;;;;;;;2.09;93.97;100703.66;4946621;28;20106;-79
2023/03/12 05:56:15;;;;;;;16.83;5.18;;;;;;;2.10;94.98;100703.63;4928817;29;20090;-78
2023/03/12 05:58:41;;;;;;;11.73;5.28;;;;;;;2.12;94.90;100708.91;4943318;28;20065;-79
2023/03/12 06:01:16;;;;;;;11.55;4.90;;;;;;;2.10;95.29;100698.25;4948258;28;20408;-79
2023/03/12 06:03:42;;;;;;;9.27;4.18;;;;;;;2.11;95.41;100702.66;4949195;28;20034;-78
2023/03/12 06:06:08;;;;;;;12.32;4.85;;;;;;;2.12;96.20;100700.84;4949858;28;20035;-79
2023/03/12 06:08:33;;;;;;;11.60;5.00;;;;;;;2.11;96.73;100700.00;4950238;29;20550;-79
2023/03/12 06:10:59;;;;;;;14.88;4.80;;;;;;;2.13;96.68;100724.06;4947300;28;20038;-79
2023/03/12 06:13:26;;;;;;;8.23;4.93;;;;;;;2.13;97.14;100716.88;4949933;29;20122;-78
2023/03/12 06:15:51;;;;;;;7.85;4.25;;;;;;;2.16;98.08;100714.09;4958065;28;20674;-79
2023/03/12 06:18:17;;;;;;;12.25;5.30;;;;;;;2.16;98.41;100716.78;4953859;28;20129;-78
2023/03/12 06:20:43;;;;;;;8.48;4.38;;;;;;;2.19;97.98;100715.75;4948770;29;20161;-78
2023/03/12 06:23:09;;;;;;;8.68;4.95;;;;;;;2.20;98.23;100725.59;4960675;28;20053;-78
2023/03/12 06:25:34;;;;;;;8.77;5.15;;;;;;;2.23;98.40;100722.75;4968355;28;20039;-79
2023/03/12 06:27:59;;;;;;;10.85;4.82;;;;;;;2.23;98.83;100717.38;4951771;28;20034;-79
2023/03/12 06:30:26;;;;;;;9.27;5.32;;;;;;;2.25;98.98;100712.84;4969432;28;20144;-78
2023/03/12 06:32:52;;;;;;;9.73;5.20;;;;;;;2.27;99.39;100709.16;4957246;28;20615;-78
2023/03/12 06:35:17;;;;;;;9.23;4.82;;;;;;;2.29;99.32;100707.31;4948660;29;20503;-78
2023/03/12 06:37:42;;;;;;;9.52;4.53;;;;;;;2.28;99.63;100700.19;4954340;28;20058;-79
2023/03/12 06:40:09;;;;;;;6.55;4.60;;;;;;;2.32;100.00;100700.03;4968825;28;20038;-78
2023/03/12 06:42:35;;;;;;;10.25;5.22;;;;;;;2.34;100.00;100693.69;4967513;28;20483;-78
2023/03/12 06:45:01;;;;;;;12.90;5.93;;;;;;;2.36;100.00;100690.94;4959870;28;20050;-79
2023/03/12 06:47:26;;;;;;;9.43;5.20;;;;;;;2.38;100.00;100686.38;4932185;28;20483;-78
2023/03/12 06:49:51;;;;;;;9.02;4.70;;;;;;;2.38;100.00;100679.22;4961659;28;20062;-79
2023/03/12 06:52:17;;;;;;;9.82;5.63;;;;;;;2.40;100.00;100680.00;4967518;28;20095;-78
2023/03/12 06:54:42;;;;;;;10.00;5.72;;;;;;;2.41;100.00;100672.81;4950344;29;20042;-78
2023/03/12 06:57:07;;;;;;;10.93;5.53;;;;;;;2.43;100.00;100669.16;4948134;28;20038;-77
2023/03/12 06:59:33;;;;;;;15.77;6.05;;;;;;;2.42;100.00;100656.63;4957560;28;20054;-77
2023/03/12 07:01:58;;;;;;;10.70;5.53;;;;;;;2.46;100.00;100670.81;4933272;28;20347;-78
2023/03/12 07:04:23;;;;;;;16.10;6.78;;;;;;;2.47;100.00;100664.50;4954632;28;20043;-78
2023/03/12 07:06:50;;;;;;;11.48;6.10;;;;;;;2.48;100.00;100653.72;4963462;28;20427;-78
2023/03/12 07:09:19;;;;;;;14.63;6.75;;;;;;;2.53;100.00;100654.41;4947854;29;20143;-78
2023/03/12 07:11:45;;;;;;;10.88;5.70;;;;;;;2.55;100.00;100654.31;4957926;28;20526;-78
2023/03/12 07:14:11;;;;;;;12.80;6.05;;;;;;;2.54;100.00;100658.81;4968735;28;20541;-78
2023/03/12 07:16:36;;;;;;;11.20;6.80;;;;;;;2.52;100.00;100652.66;4956328;28;20034;-78
2023/03/12 07:19:02;;;;;;;11.82;5.57;;;;;;;2.61;100.00;100664.81;4950378;28;20483;-78
2023/03/12 07:21:28;;;;;;;11.52;6.07;;;;;;;2.63;100.00;100660.25;4945463;28;20436;-78
2023/03/12 07:23:54;;;;;;;12.32;5.97;;;;;;;2.65;100.00;100666.41;4955268;28;20166;-78
2023/03/12 07:26:20;;;;;;;14.68;5.90;;;;;;;2.70;100.00;100671.59;4947761;29;20027;-78
2023/03/12 07:28:45;;;;;;;11.05;6.50;;;;;;;2.72;100.00;100677.78;4950019;28;20512;-77
2023/03/12 07:31:11;;;;;;;12.75;6.43;;;;;;;2.71;100.00;100665.31;4948778;29;20038;-78
2023/03/12 07:33:36;;;;;;;11.93;6.75;;;;;;;2.72;100.00;100670.59;4949495;28;20361;-77
2023/03/12 07:36:02;;;;;;;13.98;6.28;;;;;;;2.72;100.00;100672.41;4950421;28;20126;-78
2023/03/12 07:38:28;;;;;;;13.57;7.63;;;;;;;2.76;100.00;100676.72;4950440;29;20475;-78
2023/03/12 07:40:54;;;;;;;13.55;6.75;;;;;;;2.80;100.00;100681.03;4948960;28;20318;-78
2023/03/12 07:43:20;;;;;;;10.63;6.15;;;;;;;2.80;100.00;100672.97;4947954;29;20450;-78
2023/03/12 07:45:46;;;;;;;15.73;7.63;;;;;;;2.81;100.00;100662.13;4950294;28;20146;-78
2023/03/12 07:48:11;;;;;;;15.43;7.88;;;;;;;2.83;100.00;100678.19;4955517;28;20034;-78
2023/03/12 07:50:37;;;;;;;15.70;8.52;;;;;;;2.87;100.00;100681.63;4966841;28;20045;-78
2023/03/12 07:53:03;;;;;;;14.82;7.45;;;;;;;2.91;100.00;100685.91;4956514;28;20554;-78
2023/03/12 07:55:30;;;;;;;13.05;7.00;;;;;;;2.93;100.00;100675.97;4947997;29;20042;-78
2023/03/12 07:57:57;;;;;;;12.93;7.38;;;;;;;2.97;100.00;100675.75;4957600;28;20125;-78
2023/03/12 08:00:26;;;;;;;12.10;7.40;;;;;;;3.01;100.00;100674.69;4943328;29;20439;-78
2023/03/12 08:02:52;;;;;;;11.02;6.88;;;;;;;3.03;100.00;100680.91;4957973;28;20662;-78
2023/03/12 08:05:17;;;;;;;13.45;7.65;;;;;;;3.09;100.00;100678.88;4959118;28;20049;-78
2023/03/12 08:07:43;;;;;;;12.98;7.97;;;;;;;3.12;100.00;100666.16;4951155;28;20049;-78
2023/03/12 08:10:10;;;;;;;12.48;7.43;;;;;;;3.19;100.00;100664.06;4945242;28;20105;-78
2023/03/12 08:12:36;;;;;;;12.90;7.72;;;;;;;3.21;100.00;100663.03;4950334;28;20061;-77
2023/03/12 08:15:07;;;;;;;10.40;7.63;;;;;;;3.28;100.00;100671.72;4969187;28;20110;-72
2023/03/12 08:17:32;;;;;;;13.63;7.15;;;;;;;3.36;100.00;100661.50;4945964;28;20038;-73
2023/03/12 08:19:58;;;;;;;15.57;7.47;;;;;;;3.41;100.00;100664.84;4949995;28;20498;-73
2023/03/12 08:22:23;;;;;;;12.88;7.43;;;;;;;3.47;100.00;100669.06;4949153;28;20141;-73
2023/03/12 08:24:48;;;;;;;13.32;7.45;;;;;;;3.52;100.00;100672.41;4948616;29;20074;-73
2023/03/12 08:27:14;;;;;;;14.13;7.50;;;;;;;3.56;100.00;100672.22;4947951;28;20769;-73
2023/03/12 08:29:40;;;;;;;14.35;8.20;;;;;;;3.64;100.00;100674.56;4949160;29;20031;-73
2023/03/12 08:32:06;;;;;;;20.73;7.80;;;;;;;3.68;100.00;100677.94;4946462;29;20499;-73
2023/03/12 08:34:33;;;;;;;15.75;8.52;;;;;;;3.73;100.00;100679.50;4948860;28;20110;-72
2023/03/12 08:36:59;;;;;;;11.90;7.47;;;;;;;3.77;100.00;100683.78;4948061;29;20047;-73
2023/03/12 08:39:24;;;;;;;13.00;7.63;;;;;;;3.82;100.00;100694.31;4947352;28;20471;-72
2023/03/12 08:41:54;;;;;;;11.25;7.43;;;;;;;3.89;100.00;100678.78;4947335;29;20046;-73
2023/03/12 08:44:20;;;;;;;11.55;7.22;;;;;;;3.94;100.00;100685.69;4931887;29;20377;-72
2023/03/12 08:46:46;;;;;;;11.30;6.95;;;;;;;3.98;100.00;100694.47;4946924;28;20090;-73
2023/03/12 08:49:12;;;;;;;12.48;7.28;;;;;;;4.05;100.00;100688.72;4947297;28;20062;-73
2023/03/12 08:51:37;;;;;;;11.80;7.35;;;;;;;4.13;100.00;100706.31;4948596;29;20028;-72
2023/03/12 08:54:04;;;;;;;11.82;7.53;;;;;;;4.18;100.00;100699.78;4948920;29;20043;-73
2023/03/12 08:56:29;;;;;;;14.55;8.48;;;;;;;4.27;100.00;100695.75;4948288;29;20066;-73
2023/03/12 08:58:55;;;;;;;16.80;8.38;;;;;;;4.33;100.00;100700.84;4948203;28;20133;-72
2023/03/12 09:01:20;;;;;;;16.50;8.35;;;;;;;4.44;100.00;100705.72;4943770;29;20423;-73
2023/03/12 09:03:48;;;;;;;16.08;8.73;;;;;;;4.48;100.00;100702.81;4943996;28;20091;-73
2023/03/12 09:06:15;;;;;;;15.77;9.50;;;;;;;4.56;100.00;100708.66;4929322;29;20035;-72
2023/03/12 09:08:42;;;;;;;14.27;8.70;;;;;;;4.63;100.00;100702.97;4929409;29;20043;-73
2023/03/12 09:11:09;;;;;;;18.35;9.98;;;;;;;4.70;100.00;100705.28;4926940;29;20041;-72
2023/03/12 09:13:34;;;;;;;19.08;10.93;;;;;;;4.80;100.00;100702.97;4943542;29;20114;-72
2023/03/12 09:16:01;;;;;;;28.55;13.15;;;;;;;4.93;100.00;100700.53;4943347;29;20599;-73
2023/03/12 09:18:28;;;;;;;20.48;12.27;;;;;;;5.05;100.00;100697.22;4942612;29;20408;-73
2023/03/12 09:20:54;;;;;;;24.20;11.65;;;;;;;5.15;100.00;100701.16;4928858;29;20020;-73
2023/03/12 09:23:19;;;;;;;26.17;13.25;;;;;;;5.31;100.00;100698.53;4928999;29;20040;-73
2023/03/12 09:25:45;;;;;;;32.55;14.23;;;;;;;5.47;100.00;100695.91;4927914;29;20075;-73
2023/03/12 09:28:11;;;;;;;32.13;15.45;;;;;;;5.60;100.00;100689.75;4927097;29;20098;-72
2023/03/12 09:30:36;;;;;;;34.30;15.95;;;;;;;5.71;100.00;100689.16;4927693;29;20523;-73
2023/03/12 09:33:02;;;;;;;31.88;17.27;;;;;;;5.82;100.00;100693.97;4927905;29;20015;-72
2023/03/12 09:35:27;;;;;;;29.25;16.05;;;;;;;5.96;100.00;100687.84;4935518;29;20039;-74
2023/03/12 09:37:52;;;;;;;32.45;16.30;;;;;;;6.07;100.00;100702.50;4947925;29;20365;-72
2023/03/12 09:40:22;;;;;;;31.38;15.98;;;;;;;6.18;100.00;100696.47;4915028;29;20136;-72
2023/03/12 09:43:00;;;;;;;33.22;16.50;;;;;;;6.31;100.00;100696.66;4946736;28;20031;-73
2023/03/12 09:45:30;;;;;;;37.85;17.55;;;;;;;6.44;100.00;100700.41;4947990;29;20440;-73
2023/03/12 09:47:59;;;;;;;31.45;16.75;;;;;;;6.59;100.00;100695.94;4937998;29;20075;-73
2023/03/12 09:50:31;;;;;;;30.52;17.10;;;;;;;6.70;100.00;100708.81;4931250;29;20550;-73
2023/03/12 09:53:03;;;;;;;32.22;16.00;;;;;;;6.76;100.00;100712.03;4948052;29;20036;-73
2023/03/12 09:55:36;;;;;;;33.00;15.52;;;;;;;6.81;100.00;100719.88;4947185;29;20443;-73
2023/03/12 09:58:02;;;;;;;29.75;16.38;;;;;;;6.88;100.00;100726.66;4946552;28;20059;-72
2023/03/12 10:00:34;;;;;;;28.98;15.25;;;;;;;6.96;100.00;100731.63;4944644;29;20407;-74
2023/03/12 10:03:11;;;;;;;31.05;15.77;;;;;;;7.01;100.00;100730.38;4950607;28;20479;-73
2023/03/12 10:05:43;;;;;;;28.17;13.98;;;;;;;7.04;100.00;100732.03;4950091;28;20444;-73
2023/03/12 10:08:45;;;;;;;30.47;15.47;;;;;;;7.18;100.00;100729.38;4951562;28;20491;-73
2023/03/12 10:11:31;;;;;;;30.77;15.57;;;;;;;7.30;100.00;100730.47;4925470;29;20137;-73
2023/03/12 10:14:19;;;;;;;30.05;16.67;;;;;;;7.41;100.00;100734.28;4946468;28;20530;-73
2023/03/12 10:16:57;;;;;;;32.65;15.43;;;;;;;7.56;100.00;100729.75;4969091;28;20043;-73
2023/03/12 10:19:53;;;;;;;30.58;14.77;;;;;;;7.77;100.00;100724.81;4951365;28;20062;-73
2023/03/12 10:22:32;;;;;;;26.48;14.60;;;;;;;7.89;100.00;100723.19;4951565;29;20050;-72
2023/03/12 10:25:13;;;;;;;27.55;14.55;;;;;;;7.96;100.00;100720.94;4950974;28;20095;-73
2023/03/12 10:27:40;;;;;;;27.05;13.82;;;;;;;7.98;100.00;100722.59;4933617;29;20067;-73
2023/03/12 10:30:16;;;;;;;33.80;15.63;;;;;;;8.00;100.00;100725.22;4951187;28;20126;-73
2023/03/12 10:32:48;;;;;;;30.20;14.98;;;;;;;8.03;100.00;100731.31;4951132;28;20137;-74
2023/03/12 10:35:17;;;;;;;26.83;14.23;;;;;;;8.08;100.00;100731.00;4950877;28;20086;-73
2023/03/12 10:37:46;;;;;;;34.03;13.95;;;;;;;8.14;100.00;100727.91;4951335;29;20294;-73
2023/03/12 10:40:18;;;;;;;31.63;14.98;;;;;;;8.27;100.00;100728.00;4950278;29;20143;-73
2023/03/12 10:42:44;;;;;;;33.17;14.98;;;;;;;8.38;100.00;100733.59;4949117;28;20065;-73
2023/03/12 10:45:09;;;;;;;28.80;14.90;;;;;;;8.53;100.00;100720.88;4951069;29;20039;-73
2023/03/12 10:47:37;;;;;;;41.10;17.23;;;;;;;8.63;100.00;100719.31;4949750;28;20031;-74
2023/03/12 10:50:23;;;;;;;31.98;15.40;;;;;;;8.71;100.00;100716.06;4949612;28;20156;-73
2023/03/12 10:52:51;;;;;;;31.55;14.95;;;;;;;8.76;100.00;100703.94;4950921;29;20041;-73
2023/03/12 10:55:28;;;;;;;27.90;13.55;;;;;;;8.78;100.00;100721.00;4938536;29;20043;-73
2023/03/12 10:57:54;;;;;;;32.38;16.13;;;;;;;8.85;100.00;100725.03;4948884;28;20074;-73
2023/03/12 11:00:23;;;;;;;34.42;15.65;;;;;;;8.97;100.00;100722.47;4933123;29;20051;-73
2023/03/12 11:03:17;;;;;;;32.85;14.05;;;;;;;9.01;100.00;100734.88;4949126;28;20046;-74
2023/03/12 11:05:48;;;;;;;26.00;12.50;;;;;;;9.05;100.00;100725.53;4950450;28;20098;-74
2023/03/12 11:08:30;;;;;;;31.23;13.40;;;;;;;9.08;100.00;100725.31;4933286;28;20498;-73
2023/03/12 11:10:58;;;;;;;29.13;12.13;;;;;;;9.09;100.00;100727.94;4950061;29;20542;-74
2023/03/12 11:13:42;;;;;;;37.65;13.73;;;;;;;9.15;100.00;100726.66;4948678;29;20061;-73
2023/03/12 11:16:14;;;;;;;36.65;13.43;;;;;;;9.29;100.00;100729.28;4950453;28;20562;-73
2023/03/12 11:18:39;;;;;;;32.78;12.10;;;;;;;9.34;100.00;100734.41;4945356;29;20114;-74
2023/03/12 11:21:08;;;;;;;36.83;12.82;;;;;;;9.31;100.00;100737.31;4949190;28;20055;-73
2023/03/12 11:23:35;;;;;;;35.58;12.90;;;;;;;9.28;100.00;100737.50;4949222;29;20126;-74
2023/03/12 11:26:21;;;;;;;29.83;11.68;;;;;;;9.31;100.00;100745.47;4950180;28;20105;-74